Time;durP1;ratioP1;P1;durP2;ratioP2;P2;SDS_P1;SDS_P2;PMS_P1;PMS_P2;Temp;Humidity;BMP_temperature;BMP_pressure;BME280_temperature;BME280_humidity;BME280_pressure;Samples;Min_cycle;Max_cycle;Signal;HPM_P1;HPM_P2
2022/06/03 00:02:00;;;;;;;12.18;6.97;;;8.80;99.90;;;;;;5031602;28;20098;-89
2022/06/03 00:04:58;;;;;;;11.05;7.47;;;8.80;99.90;;;;;;5033047;28;20061;-89
2022/06/03 00:07:59;;;;;;;13.30;6.80;;;8.80;99.90;;;;;;5012416;28;20134;-89
2022/06/03 00:10:59;;;;;;;9.55;7.10;;;8.80;99.90;;;;;;5014722;28;20065;-89
2022/06/03 00:13:37;;;;;;;14.60;7.22;;;8.80;99.90;;;;;;5031242;28;20282;-90
2022/06/03 00:16:29;;;;;;;17.23;7.85;;;8.80;99.90;;;;;;5025724;28;20496;-89
2022/06/03 00:19:13;;;;;;;11.32;6.85;;;8.80;99.90;;;;;;5029185;28;20057;-89
2022/06/03 00:22:00;;;;;;;10.93;6.95;;;8.70;99.90;;;;;;5010889;28;20053;-89
2022/06/03 00:24:53;;;;;;;9.70;6.85;;;8.70;99.90;;;;;;5029475;28;20442;-89
2022/06/03 00:27:46;;;;;;;16.05;6.97;;;8.50;99.90;;;;;;5039965;28;20510;-89
2022/06/03 00:30:35;;;;;;;10.52;6.47;;;8.40;99.90;;;;;;5031708;28;20057;-89
2022/06/03 00:33:19;;;;;;;13.27;7.55;;;8.40;99.90;;;;;;5031481;28;20116;-89
2022/06/03 00:35:53;;;;;;;15.32;7.65;;;8.20;99.90;;;;;;5028161;28;20100;-89
2022/06/03 00:38:44;;;;;;;10.75;7.22;;;8.20;99.90;;;;;;5014001;28;20495;-89
2022/06/03 00:41:30;;;;;;;12.05;6.82;;;8.20;99.90;;;;;;5031386;28;20041;-89
2022/06/03 00:44:17;;;;;;;11.85;7.40;;;8.10;99.90;;;;;;5006003;28;20100;-89
2022/06/03 00:47:08;;;;;;;14.48;7.53;;;8.00;99.90;;;;;;5009339;28;20052;-88
2022/06/03 00:50:00;;;;;;;11.57;7.10;;;8.10;99.90;;;;;;5047657;28;20041;-93
2022/06/03 00:52:44;;;;;;;9.38;6.97;;;8.10;99.90;;;;;;5011304;28;20042;-91
2022/06/03 00:55:37;;;;;;;10.50;7.18;;;8.00;99.90;;;;;;5047734;28;20091;-90
2022/06/03 00:58:29;;;;;;;10.88;6.53;;;8.00;99.90;;;;;;5030810;28;20064;-90
2022/06/03 01:01:12;;;;;;;13.23;7.32;;;7.90;99.90;;;;;;5028316;28;20101;-90
2022/06/03 01:04:19;;;;;;;15.82;6.47;;;7.90;99.90;;;;;;5013917;28;20072;-91
2022/06/03 01:07:21;;;;;;;13.13;7.32;;;7.90;99.90;;;;;;5014542;28;20081;-88
2022/06/03 01:10:14;;;;;;;10.27;6.85;;;7.90;99.90;;;;;;5016512;28;20092;-88
2022/06/03 01:12:50;;;;;;;12.57;6.85;;;7.80;99.90;;;;;;5001173;28;20045;-92
2022/06/03 01:15:42;;;;;;;9.40;7.07;;;7.70;99.90;;;;;;5004460;28;20049;-88
2022/06/03 01:18:38;;;;;;;11.15;7.53;;;7.80;99.90;;;;;;5001620;28;20053;-88
2022/06/03 01:21:28;;;;;;;8.80;6.30;;;7.80;99.90;;;;;;5030852;28;20068;-89
2022/06/03 01:24:24;;;;;;;13.57;7.13;;;7.80;99.90;;;;;;4998417;28;20137;-88
2022/06/03 01:27:12;;;;;;;9.05;6.65;;;7.80;99.90;;;;;;5020812;28;20044;-87
2022/06/03 01:29:49;;;;;;;10.85;6.38;;;7.80;99.90;;;;;;5014434;28;20049;-92
2022/06/03 01:32:46;;;;;;;10.55;7.25;;;7.80;99.90;;;;;;5012180;28;20054;-88
2022/06/03 01:35:50;;;;;;;8.57;7.00;;;7.80;99.90;;;;;;5030939;28;20145;-89
2022/06/03 01:38:46;;;;;;;11.07;7.63;;;7.90;99.90;;;;;;5027859;28;20422;-88
2022/06/03 01:41:36;;;;;;;11.82;6.90;;;8.00;99.90;;;;;;5052425;28;20866;-89
2022/06/03 01:44:27;;;;;;;12.50;6.82;;;8.00;99.90;;;;;;5011483;28;20037;-89
2022/06/03 01:47:30;;;;;;;9.60;6.70;;;8.00;99.90;;;;;;5028652;28;20041;-90
2022/06/03 01:50:25;;;;;;;14.57;7.82;;;7.90;99.90;;;;;;5028199;28;20060;-89
2022/06/03 01:53:24;;;;;;;10.25;7.47;;;7.90;99.90;;;;;;5013485;28;20049;-90
2022/06/03 01:56:18;;;;;;;14.82;7.72;;;7.90;99.90;;;;;;5012383;28;20049;-89
2022/06/03 01:59:18;;;;;;;13.98;7.63;;;7.90;99.90;;;;;;5034010;28;20084;-93
2022/06/03 02:02:19;;;;;;;11.65;8.50;;;7.80;99.90;;;;;;4976310;28;20053;-90
2022/06/03 02:05:14;;;;;;;12.15;7.18;;;7.70;99.90;;;;;;5015584;28;20049;-91
2022/06/03 02:08:02;;;;;;;11.45;7.88;;;7.50;99.90;;;;;;5007336;28;20483;-90
2022/06/03 02:10:36;;;;;;;12.63;8.82;;;7.50;99.90;;;;;;5033889;28;20130;-89
2022/06/03 02:13:20;;;;;;;16.42;8.27;;;7.60;99.90;;;;;;5032135;28;20128;-90
2022/06/03 02:16:30;;;;;;;17.42;8.18;;;7.50;99.90;;;;;;5026422;28;20426;-91
2022/06/03 02:19:07;;;;;;;12.50;8.00;;;7.50;99.90;;;;;;5011074;28;20106;-89
2022/06/03 02:21:35;;;;;;;12.73;7.53;;;7.50;99.90;;;;;;5030913;28;20467;-89
2022/06/03 02:24:26;;;;;;;11.90;8.10;;;7.40;99.90;;;;;;5010516;28;20505;-90
2022/06/03 02:27:18;;;;;;;10.52;7.43;;;7.40;99.90;;;;;;5031164;28;20037;-89
2022/06/03 02:30:36;;;;;;;13.60;8.20;;;7.40;99.90;;;;;;5033354;28;20111;-89
2022/06/03 02:33:02;;;;;;;;;;;7.40;99.90;;;;;;5015225;28;20459;-90
2022/06/03 02:35:47;;;;;;;11.53;7.70;;;7.40;99.90;;;;;;5065069;28;20010;-89
2022/06/03 02:38:34;;;;;;;11.77;7.70;;;7.40;99.90;;;;;;5032827;28;20475;-88
2022/06/03 02:41:28;;;;;;;13.80;8.38;;;7.30;99.90;;;;;;5033102;28;20049;-88
2022/06/03 02:44:30;;;;;;;11.35;8.02;;;7.20;99.90;;;;;;5013534;28;20046;-88
2022/06/03 02:47:24;;;;;;;14.65;7.90;;;7.10;99.90;;;;;;4996499;28;20528;-88
2022/06/03 02:50:00;;;;;;;13.15;8.18;;;7.00;99.90;;;;;;5033410;28;20092;-89
2022/06/03 02:52:50;;;;;;;13.43;8.30;;;7.00;99.90;;;;;;5009494;28;20124;-89
2022/06/03 02:55:34;;;;;;;13.15;9.07;;;7.00;99.90;;;;;;5060666;28;20042;-88
2022/06/03 02:58:30;;;;;;;14.43;8.90;;;6.90;99.90;;;;;;5033388;28;20067;-89
2022/06/03 03:01:21;;;;;;;14.07;8.68;;;7.00;99.90;;;;;;5012824;28;20099;-89
2022/06/03 03:04:22;;;;;;;13.52;9.45;;;7.00;99.90;;;;;;5038278;28;20123;-89
2022/06/03 03:06:50;;;;;;;15.55;9.52;;;7.10;99.90;;;;;;5016799;28;20068;-88
2022/06/03 03:09:22;;;;;;;13.35;7.85;;;7.10;99.90;;;;;;5031994;28;20054;-88
2022/06/03 03:12:00;;;;;;;13.52;9.07;;;7.10;99.90;;;;;;5013992;28;20060;-89
2022/06/03 03:14:54;;;;;;;13.57;8.90;;;7.10;99.90;;;;;;5020982;28;20041;-89
2022/06/03 03:17:38;;;;;;;15.95;10.00;;;7.00;99.90;;;;;;5040271;28;20045;-89
2022/06/03 03:20:04;;;;;;;14.68;9.07;;;7.00;99.90;;;;;;5025817;28;20060;-90
2022/06/03 03:22:49;;;;;;;14.90;9.98;;;7.20;99.90;;;;;;5063723;28;20054;-90
2022/06/03 03:25:29;;;;;;;11.43;9.23;;;7.20;99.90;;;;;;5050424;28;20065;-92
2022/06/03 03:28:38;;;;;;;15.07;9.77;;;7.30;99.90;;;;;;5048979;28;20055;-90
2022/06/03 03:31:22;;;;;;;18.52;10.05;;;7.30;99.90;;;;;;4992486;28;20108;-92
2022/06/03 03:34:06;;;;;;;15.43;9.50;;;7.40;99.90;;;;;;5043690;28;20046;-90
2022/06/03 03:36:32;;;;;;;14.73;8.70;;;7.40;99.90;;;;;;5023098;28;20072;-91
2022/06/03 03:39:09;;;;;;;16.15;9.80;;;7.50;99.90;;;;;;5024907;28;20095;-93
2022/06/03 03:41:43;;;;;;;13.40;9.60;;;7.50;99.90;;;;;;5032543;28;20056;-90
2022/06/03 03:44:15;;;;;;;15.63;10.30;;;7.60;99.90;;;;;;5034115;28;20045;-89
2022/06/03 03:47:14;;;;;;;13.02;9.75;;;7.60;99.90;;;;;;5017361;28;20120;-89
2022/06/03 03:50:01;;;;;;;16.80;9.13;;;7.70;99.90;;;;;;5058675;28;20041;-91
2022/06/03 03:52:51;;;;;;;13.93;9.40;;;7.60;99.90;;;;;;5028146;28;20042;-90
2022/06/03 03:55:38;;;;;;;15.90;10.07;;;7.60;99.90;;;;;;5066333;28;20038;-91
2022/06/03 03:58:18;;;;;;;13.93;9.18;;;7.60;99.90;;;;;;5003908;28;20053;-90
2022/06/03 04:00:59;;;;;;;13.85;9.90;;;7.70;99.90;;;;;;5014897;28;20038;-88
2022/06/03 04:03:36;;;;;;;15.93;9.68;;;7.80;99.90;;;;;;5031019;28;20068;-89
2022/06/03 04:06:17;;;;;;;14.45;10.07;;;7.80;99.90;;;;;;5010900;28;20045;-93
2022/06/03 04:09:20;;;;;;;16.05;9.00;;;7.80;99.90;;;;;;5027979;28;20176;-89
2022/06/03 04:12:20;;;;;;;14.57;9.00;;;7.90;99.90;;;;;;5031160;28;20042;-88
2022/06/03 04:15:23;;;;;;;12.85;9.30;;;8.00;99.90;;;;;;5027037;28;20100;-88
2022/06/03 04:18:37;;;;;;;15.73;9.40;;;8.10;99.90;;;;;;5028812;28;20491;-89
2022/06/03 04:21:05;;;;;;;14.02;9.27;;;8.30;99.90;;;;;;5028518;28;20537;-90
2022/06/03 04:24:00;;;;;;;12.85;9.38;;;8.40;99.90;;;;;;5006932;28;20506;-89
2022/06/03 04:26:47;;;;;;;11.55;9.93;;;8.50;99.90;;;;;;5032079;28;20142;-89
2022/06/03 04:29:45;;;;;;;14.90;9.23;;;8.60;99.90;;;;;;5025120;28;20046;-88
2022/06/03 04:32:37;;;;;;;13.55;8.70;;;8.70;99.90;;;;;;5027604;28;20080;-89
2022/06/03 04:35:27;;;;;;;11.35;8.75;;;8.70;99.90;;;;;;5031170;28;20045;-90
2022/06/03 04:38:14;;;;;;;12.93;9.32;;;8.70;99.90;;;;;;5047844;28;20045;-90
2022/06/03 04:41:06;;;;;;;17.63;8.75;;;8.70;99.90;;;;;;5028354;28;20068;-89
2022/06/03 04:44:08;;;;;;;15.90;9.32;;;8.80;99.90;;;;;;5029978;28;20041;-88
2022/06/03 04:47:05;;;;;;;;;;;;;;;;;;;;;
2022/06/03 04:50:48;;;;;;;;;;;;;;;;;;;;;
2022/06/03 04:53:53;;;;;;;13.02;8.50;;;9.00;99.90;;;;;;4940810;28;20067;-91
2022/06/03 04:56:52;;;;;;;14.13;8.63;;;9.10;99.90;;;;;;5002218;28;20479;-88
2022/06/03 04:59:45;;;;;;;11.32;8.50;;;9.20;99.90;;;;;;5005652;28;20092;-91
2022/06/03 05:02:29;;;;;;;12.02;8.18;;;9.20;99.90;;;;;;5038441;28;20136;-93
2022/06/03 05:05:00;;;;;;;10.57;8.45;;;9.30;99.90;;;;;;5046215;28;20414;-88
2022/06/03 05:07:50;;;;;;;11.82;8.23;;;9.30;99.90;;;;;;5018767;28;20049;-87
2022/06/03 05:10:35;;;;;;;12.82;8.95;;;9.40;99.90;;;;;;5030636;28;20118;-87
2022/06/03 05:13:45;;;;;;;12.00;7.78;;;9.40;99.90;;;;;;5059456;28;20053;-85
2022/06/03 05:16:32;;;;;;;11.27;7.63;;;9.50;99.90;;;;;;5031360;28;20108;-89
2022/06/03 05:18:58;;;;;;;13.48;8.43;;;9.50;99.90;;;;;;5031959;28;20045;-86
2022/06/03 05:21:24;;;;;;;11.75;8.02;;;9.50;99.90;;;;;;5015078;28;20068;-87
2022/06/03 05:24:28;;;;;;;12.90;8.82;;;9.60;99.90;;;;;;5031411;28;20033;-86
2022/06/03 05:27:06;;;;;;;10.80;7.78;;;9.70;99.90;;;;;;5003006;28;20197;-86
2022/06/03 05:30:03;;;;;;;12.50;8.18;;;9.80;99.90;;;;;;5031211;28;20618;-86
2022/06/03 05:32:29;;;;;;;10.93;8.10;;;9.80;99.90;;;;;;5025609;28;20037;-89
2022/06/03 05:35:16;;;;;;;10.80;7.55;;;9.80;99.90;;;;;;5025422;28;20049;-88
2022/06/03 05:37:50;;;;;;;14.95;8.07;;;9.90;99.90;;;;;;5006015;28;20049;-87
2022/06/03 05:40:24;;;;;;;11.45;8.02;;;10.00;99.90;;;;;;5031323;28;20450;-88
2022/06/03 05:43:12;;;;;;;11.75;8.23;;;10.10;99.90;;;;;;5034905;28;20075;-86
2022/06/03 05:45:44;;;;;;;12.80;8.25;;;10.20;99.90;;;;;;5044520;28;20049;-87
2022/06/03 05:48:41;;;;;;;14.43;7.80;;;10.20;99.90;;;;;;5035094;28;20067;-87
2022/06/03 05:51:13;;;;;;;;;;;10.30;99.90;;;;;;5035059;28;20046;-86
2022/06/03 05:54:24;;;;;;;13.73;7.70;;;10.40;99.90;;;;;;5017495;28;20015;-86
2022/06/03 05:57:11;;;;;;;14.77;7.55;;;10.60;99.90;;;;;;5011202;28;20045;-88
2022/06/03 05:59:52;;;;;;;11.73;7.40;;;10.70;99.90;;;;;;5010907;28;20045;-88
2022/06/03 06:02:40;;;;;;;10.60;7.68;;;10.80;99.90;;;;;;5015963;28;20065;-91
2022/06/03 06:05:23;;;;;;;12.73;7.45;;;10.90;99.90;;;;;;5016053;28;20061;-88
2022/06/03 06:08:22;;;;;;;7.53;6.60;;;11.00;99.90;;;;;;5032530;28;20053;-89
2022/06/03 06:11:18;;;;;;;12.20;6.78;;;11.20;99.90;;;;;;5051758;28;20304;-90
2022/06/03 06:13:59;;;;;;;8.00;6.25;;;11.30;99.90;;;;;;5025091;28;20057;-88
2022/06/03 06:16:35;;;;;;;9.18;6.00;;;11.50;99.90;;;;;;5041579;28;20049;-91
2022/06/03 06:19:09;;;;;;;;;;;11.80;99.90;;;;;;5030656;28;20029;-92
2022/06/03 06:22:14;;;;;;;6.90;5.40;;;12.00;99.90;;;;;;5025217;28;20203;-92
2022/06/03 06:24:51;;;;;;;7.95;5.30;;;12.40;99.90;;;;;;4965088;28;20048;-91
2022/06/03 06:28:01;;;;;;;6.18;5.03;;;12.70;99.90;;;;;;4980321;28;20125;-91
2022/06/03 06:30:49;;;;;;;8.68;4.82;;;13.10;99.90;;;;;;5013404;28;20060;-90
2022/06/03 06:33:40;;;;;;;6.80;4.63;;;13.50;99.90;;;;;;5033474;28;20200;-90
2022/06/03 06:45:22;;;;;;;4.15;3.45;;;14.80;99.90;;;;;;5027527;28;20091;-88
2022/06/03 06:51:16;;;;;;;7.35;4.00;;;15.50;99.90;;;;;;5022355;28;20037;-90
2022/06/03 06:54:06;;;;;;;4.40;3.35;;;15.70;99.90;;;;;;5016684;28;20546;-90
2022/06/03 06:57:00;;;;;;;5.60;3.30;;;16.00;99.90;;;;;;5008548;28;20414;-89
2022/06/03 06:59:46;;;;;;;4.15;3.45;;;16.20;99.90;;;;;;5015130;28;20159;-90
2022/06/03 07:02:51;;;;;;;5.05;3.58;;;16.40;99.90;;;;;;5002881;28;20119;-89
2022/06/03 07:08:49;;;;;;;6.20;3.17;;;16.60;99.90;;;;;;5030298;28;20155;-91
2022/06/03 07:11:46;;;;;;;5.80;2.92;;;16.90;99.90;;;;;;5011320;28;20041;-89
2022/06/03 07:14:26;;;;;;;8.25;2.85;;;17.20;99.90;;;;;;5016636;28;20041;-89
2022/06/03 07:20:29;;;;;;;3.80;2.80;;;17.70;99.90;;;;;;5030383;28;20080;-88
2022/06/03 07:23:33;;;;;;;4.28;2.10;;;18.00;99.90;;;;;;5036718;28;20053;-89
2022/06/03 07:27:00;;;;;;;3.35;1.92;;;18.40;95.00;;;;;;5015479;28;20049;-88
2022/06/03 07:29:39;;;;;;;4.95;2.30;;;18.60;91.50;;;;;;4979572;28;20053;-88
2022/06/03 07:32:27;;;;;;;4.00;2.13;;;18.90;92.70;;;;;;5027646;28;20188;-88
2022/06/03 07:35:13;;;;;;;;;;;;;;;;;;;;;
2022/06/03 07:38:01;;;;;;;;;;;19.50;85.70;;;;;;5028797;28;20045;-89
2022/06/03 07:41:00;;;;;;;5.38;2.00;;;19.70;87.80;;;;;;5015164;28;19962;-88
2022/06/03 07:44:21;;;;;;;5.40;2.30;;;20.00;87.70;;;;;;5026302;28;20064;-90
2022/06/03 07:47:10;;;;;;;3.35;1.95;;;20.30;75.70;;;;;;5025545;28;20053;-90
2022/06/03 07:49:56;;;;;;;5.18;2.22;;;20.40;72.70;;;;;;5014250;28;20056;-89
2022/06/03 07:53:10;;;;;;;4.30;2.65;;;20.50;71.20;;;;;;5014707;28;20100;-90
2022/06/03 07:55:50;;;;;;;6.15;2.78;;;20.80;69.60;;;;;;5026987;28;20521;-89
2022/06/03 07:58:27;;;;;;;4.22;2.28;;;21.10;71.00;;;;;;4995061;28;20061;-89
2022/06/03 08:01:18;;;;;;;4.95;2.30;;;21.40;67.80;;;;;;5013807;28;20076;-89
2022/06/03 08:03:47;;;;;;;2.40;2.05;;;21.70;65.50;;;;;;4996884;28;20427;-89
2022/06/03 08:12:57;;;;;;;3.50;2.33;;;22.50;61.70;;;;;;5031940;28;20052;-89
2022/06/03 08:15:42;;;;;;;;;;;;;;;;;;;;;
2022/06/03 08:18:17;;;;;;;3.80;2.22;;;23.00;59.20;;;;;;5032495;28;20041;-88
2022/06/03 08:21:08;;;;;;;;;;;;;;;;;;;;;
2022/06/03 08:23:49;;;;;;;2.55;2.10;;;23.70;57.30;;;;;;5020004;28;20160;-88
2022/06/03 08:26:26;;;;;;;5.80;2.40;;;24.10;56.70;;;;;;5015974;28;20053;-87
2022/06/03 08:29:39;;;;;;;;;;;;;;;;;;;;;
2022/06/03 08:32:15;;;;;;;3.22;2.10;;;24.50;53.80;;;;;;5029226;28;20503;-87
2022/06/03 08:34:55;;;;;;;4.80;2.55;;;24.80;53.10;;;;;;5048167;28;20049;-88
2022/06/03 08:37:40;;;;;;;5.35;2.67;;;24.80;51.30;;;;;;5004199;28;20084;-88
2022/06/03 08:40:37;;;;;;;3.90;2.15;;;24.80;51.20;;;;;;5031660;28;20095;-88
2022/06/03 08:43:29;;;;;;;;;;;24.90;50.80;;;;;;5037765;28;20483;-90
2022/06/03 08:46:17;;;;;;;4.93;2.60;;;25.00;51.40;;;;;;5052176;28;19928;-87
2022/06/03 08:48:52;;;;;;;5.93;2.80;;;25.20;51.50;;;;;;5026226;28;20058;-88
2022/06/03 08:51:40;;;;;;;4.45;2.60;;;25.40;50.10;;;;;;5043497;28;20052;-87
2022/06/03 08:54:30;;;;;;;3.53;2.50;;;25.30;48.60;;;;;;5026885;28;20140;-89
2022/06/03 08:57:14;;;;;;;2.92;2.55;;;25.60;49.30;;;;;;5032958;28;20111;-88
2022/06/03 09:00:10;;;;;;;;;;;;;;;;;;;;;
2022/06/03 09:02:39;;;;;;;3.65;2.22;;;26.30;47.20;;;;;;5034939;28;20053;-88
2022/06/03 09:06:10;;;;;;;;;;;;;;;;;;;;;
2022/06/03 09:09:04;;;;;;;;;;;;;;;;;;;;;
2022/06/03 09:12:10;;;;;;;;;;;;;;;;;;;;;
2022/06/03 09:14:48;;;;;;;4.03;3.17;;;26.30;43.30;;;;;;5035302;28;20060;-89
2022/06/03 09:18:18;;;;;;;4.28;2.78;;;26.50;44.00;;;;;;5053677;28;20442;-88
2022/06/03 09:20:59;;;;;;;;;;;;;;;;;;;;;
2022/06/03 09:23:52;;;;;;;4.07;2.10;;;26.60;42.80;;;;;;5024026;28;20152;-88
2022/06/03 09:27:11;;;;;;;;;;;;;;;;;;;;;
2022/06/03 09:30:00;;;;;;;3.28;2.30;;;27.30;40.80;;;;;;5035168;28;20132;-88
2022/06/03 09:35:57;;;;;;;;;;;;;;;;;;;;;
2022/06/03 09:39:09;;;;;;;;;;;;;;;;;;;;;
2022/06/03 09:41:55;;;;;;;;;;;;;;;;;;;;;
2022/06/03 09:44:57;;;;;;;;;;;;;;;;;;;;;
2022/06/03 09:47:50;;;;;;;4.18;2.05;;;28.60;39.70;;;;;;5034821;28;20410;-88
2022/06/03 09:50:56;;;;;;;3.28;2.20;;;28.70;37.80;;;;;;5028172;28;20142;-89
2022/06/03 09:54:10;;;;;;;;;;;;;;;;;;;;;
2022/06/03 09:56:40;;;;;;;2.83;2.28;;;29.20;38.70;;;;;;5021011;28;20808;-90
2022/06/03 09:59:21;;;;;;;2.58;2.03;;;29.80;37.00;;;;;;5036053;28;20041;-88
2022/06/03 10:01:59;;;;;;;4.57;2.15;;;30.20;36.40;;;;;;5064919;28;20045;-89
2022/06/03 10:04:30;;;;;;;4.47;2.20;;;30.60;35.70;;;;;;4999691;28;20053;-86
2022/06/03 10:07:00;;;;;;;3.50;1.90;;;30.60;34.90;;;;;;5033345;28;20085;-86
2022/06/03 10:18:05;;;;;;;4.15;2.00;;;31.00;33.90;;;;;;5020927;28;20057;-86
2022/06/03 10:20:39;;;;;;;3.38;1.55;;;31.10;33.00;;;;;;5033672;28;20091;-86
2022/06/03 10:23:09;;;;;;;3.28;2.05;;;31.00;33.80;;;;;;4997729;28;20107;-86
2022/06/03 10:25:47;;;;;;;3.00;1.60;;;31.10;32.60;;;;;;5016100;28;20049;-89
2022/06/03 10:28:19;;;;;;;2.05;1.55;;;30.80;32.70;;;;;;5017999;28;20065;-87
2022/06/03 10:31:06;;;;;;;2.67;1.80;;;31.10;32.60;;;;;;5033179;28;20053;-89
2022/06/03 10:33:35;;;;;;;3.15;1.70;;;31.10;30.90;;;;;;5016847;28;20049;-88
2022/06/03 10:36:07;;;;;;;2.80;1.80;;;30.80;32.50;;;;;;5030327;28;20091;-86
2022/06/03 10:38:51;;;;;;;2.75;1.80;;;31.00;32.60;;;;;;5006309;28;20046;-86
2022/06/03 10:41:49;;;;;;;3.42;1.63;;;31.20;32.50;;;;;;5025837;28;20046;-85
2022/06/03 10:44:38;;;;;;;2.65;1.77;;;31.20;31.00;;;;;;5012916;28;20064;-86
2022/06/03 10:50:39;;;;;;;3.00;2.00;;;31.30;32.20;;;;;;5014102;28;20053;-86
2022/06/03 11:01:06;;;;;;;2.67;1.60;;;31.30;30.60;;;;;;5020132;28;20058;-85
2022/06/03 11:02:17;;;;;;;1.88;1.45;;;31.50;31.20;;;;;;5021253;28;20072;-86
2022/06/03 11:08:09;;;;;;;2.33;1.60;;;31.70;30.40;;;;;;5020533;28;20079;-86
2022/06/03 11:10:50;;;;;;;2.22;1.80;;;31.80;30.70;;;;;;5015328;28;20183;-86
2022/06/03 11:13:39;;;;;;;2.10;1.60;;;31.00;29.40;;;;;;5027025;28;20127;-88
2022/06/03 11:16:40;;;;;;;3.03;1.70;;;30.80;31.30;;;;;;5034914;28;20053;-87
2022/06/03 11:19:52;;;;;;;3.13;2.10;;;31.60;31.20;;;;;;5015324;28;20045;-86
2022/06/03 11:22:43;;;;;;;;;;;;;;;;;;;;;
2022/06/03 11:25:27;;;;;;;3.42;1.65;;;32.10;30.00;;;;;;5027704;28;20107;-86
2022/06/03 11:28:30;;;;;;;2.75;1.65;;;32.10;29.00;;;;;;5015601;28;20037;-87
2022/06/03 11:31:20;;;;;;;2.45;1.63;;;31.70;29.80;;;;;;5027101;28;20068;-88
2022/06/03 11:34:08;;;;;;;1.77;1.15;;;31.80;29.70;;;;;;5030241;28;20053;-87
2022/06/03 11:36:54;;;;;;;2.72;1.50;;;32.20;29.90;;;;;;5016115;28;20148;-87
2022/06/03 11:39:20;;;;;;;3.65;1.70;;;32.60;29.40;;;;;;5008650;28;20046;-86
2022/06/03 11:42:29;;;;;;;3.60;1.70;;;33.00;29.10;;;;;;5011382;28;20087;-86
2022/06/03 11:45:16;;;;;;;2.88;1.75;;;32.50;29.20;;;;;;5030984;28;20110;-86
2022/06/03 11:47:57;;;;;;;3.83;1.20;;;32.20;28.90;;;;;;5014596;28;20529;-85
2022/06/03 11:50:31;;;;;;;1.95;1.30;;;32.30;28.70;;;;;;5011649;28;20049;-88
2022/06/03 11:53:14;;;;;;;1.80;1.35;;;32.00;28.50;;;;;;5021861;28;20048;-89
2022/06/03 11:55:48;;;;;;;3.03;1.73;;;32.20;29.20;;;;;;5014792;28;20073;-88
2022/06/03 11:58:30;;;;;;;3.58;1.65;;;33.10;28.20;;;;;;5014955;28;20049;-88
2022/06/03 12:01:18;;;;;;;1.92;1.30;;;33.50;27.80;;;;;;5011475;28;20124;-88
2022/06/03 12:04:37;;;;;;;2.40;1.27;;;33.90;27.70;;;;;;5007224;28;20107;-88
2022/06/03 12:07:10;;;;;;;3.88;1.70;;;34.20;27.50;;;;;;4979684;28;20049;-90
2022/06/03 12:09:58;;;;;;;2.50;1.55;;;33.90;27.20;;;;;;5044952;28;20049;-89
2022/06/03 12:15:38;;;;;;;2.72;1.70;;;33.40;27.80;;;;;;5029530;28;20103;-88
2022/06/03 12:18:09;;;;;;;2.22;1.67;;;33.40;27.00;;;;;;5013790;28;20179;-89
2022/06/03 12:20:49;;;;;;;4.95;1.55;;;32.30;27.60;;;;;;5021518;28;20088;-88
2022/06/03 12:23:18;;;;;;;3.35;1.60;;;31.50;27.80;;;;;;5002812;28;20050;-88
2022/06/03 12:26:27;;;;;;;1.67;1.35;;;31.40;28.40;;;;;;5017028;28;20045;-88
2022/06/03 12:29:38;;;;;;;1.73;1.50;;;31.20;29.30;;;;;;5021078;28;20077;-90
2022/06/03 12:32:26;;;;;;;2.13;1.50;;;31.40;28.00;;;;;;5025332;28;20065;-90
2022/06/03 12:35:41;;;;;;;3.42;1.20;;;32.30;28.80;;;;;;5026639;28;20292;-87
2022/06/03 12:38:24;;;;;;;1.88;1.15;;;33.40;28.20;;;;;;5059132;28;20057;-92
2022/06/03 12:41:41;;;;;;;3.92;1.40;;;34.10;26.60;;;;;;5027242;28;20038;-88
2022/06/03 12:44:51;;;;;;;;;;;;;;;;;;;;;
2022/06/03 12:47:41;;;;;;;3.78;1.40;;;33.90;25.40;;;;;;5024435;28;20164;-87
2022/06/03 12:50:30;;;;;;;2.80;1.40;;;33.50;27.60;;;;;;5012044;28;20057;-88
2022/06/03 12:53:31;;;;;;;2.20;1.20;;;33.80;26.60;;;;;;5011208;28;20045;-88
2022/06/03 12:56:10;;;;;;;;;;;;;;;;;;;;;
2022/06/03 12:59:08;;;;;;;2.22;1.33;;;34.40;26.10;;;;;;5022587;28;20048;-89
2022/06/03 13:02:05;;;;;;;1.92;1.10;;;34.70;26.20;;;;;;5011530;28;20171;-87
2022/06/03 13:08:17;;;;;;;2.25;1.05;;;34.70;25.00;;;;;;5050487;28;20049;-88
2022/06/03 13:11:21;;;;;;;2.88;1.13;;;34.80;25.70;;;;;;5004997;28;20057;-88
2022/06/03 13:13:58;;;;;;;4.63;1.10;;;35.00;24.90;;;;;;5027726;28;20128;-87
2022/06/03 13:16:55;;;;;;;2.53;1.00;;;34.80;25.10;;;;;;5028738;28;20052;-88
2022/06/03 13:19:29;;;;;;;2.10;1.15;;;34.40;23.80;;;;;;5014412;28;20049;-88
2022/06/03 13:22:17;;;;;;;;;;;;;;;;;;;;;
2022/06/03 13:25:15;;;;;;;2.60;1.10;;;33.30;25.70;;;;;;5030455;28;20072;-86
2022/06/03 13:28:08;;;;;;;1.98;1.10;;;33.30;24.60;;;;;;5004432;28;20044;-86
2022/06/03 13:30:37;;;;;;;1.92;0.90;;;33.20;25.90;;;;;;5007577;28;20042;-87
2022/06/03 13:33:40;;;;;;;1.95;1.15;;;33.30;26.10;;;;;;4987010;28;20137;-87
2022/06/03 13:36:30;;;;;;;3.72;1.02;;;32.70;26.00;;;;;;5041285;28;20495;-87
2022/06/03 13:38:59;;;;;;;4.03;1.10;;;31.70;26.10;;;;;;5030036;28;20136;-87
2022/06/03 13:44:48;;;;;;;2.17;1.17;;;32.00;26.30;;;;;;5021187;28;20046;-88
2022/06/03 13:47:35;;;;;;;1.52;1.00;;;32.90;26.30;;;;;;5031231;28;20053;-88
2022/06/03 13:50:30;;;;;;;2.97;1.10;;;33.70;25.90;;;;;;5007737;28;20045;-88
2022/06/03 13:53:09;;;;;;;2.63;1.10;;;33.80;25.50;;;;;;5007186;28;20132;-88
2022/06/03 13:55:38;;;;;;;2.33;0.90;;;34.30;25.40;;;;;;5017519;28;20557;-87
2022/06/03 13:58:10;;;;;;;2.65;0.90;;;34.60;24.90;;;;;;5050783;28;20053;-88
2022/06/03 14:00:55;;;;;;;2.72;1.23;;;34.70;24.60;;;;;;5018199;28;20089;-89
2022/06/03 14:04:11;;;;;;;0.82;0.82;;;34.40;24.60;;;;;;5041568;28;20065;-89
2022/06/03 14:06:46;;;;;;;2.20;1.13;;;34.80;24.40;;;;;;5040125;28;20049;-88
2022/06/03 14:12:40;;;;;;;2.78;1.10;;;34.90;23.90;;;;;;5040631;28;20047;-89
2022/06/03 14:15:22;;;;;;;2.30;0.88;;;34.80;24.60;;;;;;5053502;28;20056;-88
2022/06/03 14:18:11;;;;;;;2.30;0.90;;;34.90;24.10;;;;;;5019083;28;20495;-89
2022/06/03 14:20:52;;;;;;;2.53;1.20;;;34.60;24.70;;;;;;5029727;28;20037;-89
2022/06/03 14:23:51;;;;;;;3.90;1.40;;;34.20;23.90;;;;;;5021595;28;20045;-87
2022/06/03 14:26:29;;;;;;;4.68;1.33;;;33.70;24.20;;;;;;5010571;28;20073;-88
2022/06/03 14:29:09;;;;;;;2.45;0.85;;;33.50;25.50;;;;;;5034959;28;20068;-91
2022/06/03 14:31:46;;;;;;;2.53;1.10;;;33.50;25.70;;;;;;5033477;28;20124;-90
2022/06/03 14:34:42;;;;;;;2.03;0.80;;;33.70;25.60;;;;;;5015728;28;20056;-92
2022/06/03 14:37:26;;;;;;;1.50;0.90;;;33.90;25.40;;;;;;5017349;28;20371;-88
2022/06/03 14:39:57;;;;;;;1.27;0.90;;;33.90;25.10;;;;;;5017695;28;20090;-89
2022/06/03 14:42:32;;;;;;;1.60;0.88;;;33.70;25.30;;;;;;5049309;28;20041;-91
2022/06/03 14:45:12;;;;;;;2.40;1.30;;;33.80;25.20;;;;;;5033812;28;20080;-88
2022/06/03 14:47:47;;;;;;;1.40;0.90;;;33.30;24.00;;;;;;5016710;28;20045;-90
2022/06/03 14:50:40;;;;;;;;;;;;;;;;;;;;;
2022/06/03 14:53:31;;;;;;;3.13;0.95;;;33.10;24.60;;;;;;5023214;28;20049;-88
2022/06/03 14:56:11;;;;;;;2.22;0.88;;;32.80;25.00;;;;;;5017253;28;20061;-90
2022/06/03 14:58:49;;;;;;;2.08;0.85;;;32.80;25.30;;;;;;5030946;28;20890;-88
2022/06/03 15:01:50;;;;;;;1.75;0.70;;;32.70;25.40;;;;;;5033682;28;20287;-89
2022/06/03 15:04:38;;;;;;;2.95;0.68;;;32.60;25.00;;;;;;5009994;28;20049;-89
2022/06/03 15:07:09;;;;;;;1.90;1.10;;;32.60;25.40;;;;;;5012858;28;20491;-88
2022/06/03 15:09:44;;;;;;;1.92;1.17;;;32.40;24.80;;;;;;5007912;28;20042;-89
2022/06/03 15:12:20;;;;;;;1.80;1.10;;;32.00;25.10;;;;;;5012271;28;20049;-89
2022/06/03 15:14:59;;;;;;;1.77;0.97;;;31.50;25.90;;;;;;5017861;28;20056;-89
2022/06/03 15:17:31;;;;;;;2.53;1.50;;;31.40;25.80;;;;;;5033312;28;20292;-90
2022/06/03 15:20:00;;;;;;;2.78;1.05;;;31.50;25.90;;;;;;5033318;28;20167;-89
2022/06/03 15:22:36;;;;;;;1.40;0.82;;;31.50;25.90;;;;;;5016672;28;20077;-88
2022/06/03 15:25:17;;;;;;;1.15;0.60;;;31.50;26.60;;;;;;5016425;28;20100;-89
2022/06/03 15:28:11;;;;;;;4.00;1.35;;;31.40;26.60;;;;;;5032497;28;20158;-89
2022/06/03 15:30:55;;;;;;;5.40;1.55;;;30.80;26.70;;;;;;5032633;28;20046;-88
2022/06/03 15:33:31;;;;;;;2.45;0.70;;;30.60;26.50;;;;;;5050267;28;20060;-88
2022/06/03 15:36:07;;;;;;;1.30;0.70;;;30.00;27.30;;;;;;5033701;28;20045;-88
2022/06/03 15:38:44;;;;;;;2.75;1.00;;;29.20;28.40;;;;;;5019453;28;20053;-89
2022/06/03 15:41:20;;;;;;;1.80;0.70;;;29.20;28.80;;;;;;5015886;28;20111;-89
2022/06/03 15:43:51;;;;;;;1.88;0.80;;;29.70;28.70;;;;;;5031233;28;20084;-87
2022/06/03 15:46:38;;;;;;;1.65;0.70;;;29.90;28.40;;;;;;5014477;28;20049;-88
2022/06/03 15:49:08;;;;;;;1.55;0.68;;;29.80;27.60;;;;;;5033309;28;20076;-89
2022/06/03 15:51:48;;;;;;;3.50;0.88;;;29.70;28.20;;;;;;5038687;28;20069;-90
2022/06/03 15:54:35;;;;;;;8.38;1.90;;;29.50;28.30;;;;;;5012758;28;20171;-87
2022/06/03 15:57:16;;;;;;;1.05;0.77;;;29.00;27.60;;;;;;5025731;28;20084;-88
2022/06/03 16:00:06;;;;;;;1.95;0.80;;;28.70;28.90;;;;;;5008850;28;20505;-88
2022/06/03 16:03:12;;;;;;;1.52;0.70;;;28.00;29.10;;;;;;5049280;28;20045;-91
2022/06/03 16:06:01;;;;;;;3.83;0.85;;;27.90;29.50;;;;;;5051047;28;20064;-88